createdAt,value
2023-02-01T10:45:30.441Z,95487.53
2023-02-01T10:48:02.852Z,95488.75
2023-02-01T10:50:42.013Z,95454.28
2023-02-01T10:53:19.307Z,95462.13
2023-02-01T10:55:54.001Z,95447.78
2023-02-01T10:58:29.013Z,95446.41
2023-02-01T11:01:04.073Z,95462.81
2023-02-01T11:03:40.566Z,95458.22
2023-02-01T11:06:21.485Z,95466.78
2023-02-01T11:08:52.844Z,95445.47
2023-02-01T11:11:22.377Z,95457.50
2023-02-01T11:13:56.420Z,95452.66
2023-02-01T11:16:33.531Z,95449.75
2023-02-01T11:19:02.752Z,95453.91
2023-02-01T11:21:31.451Z,95428.72
2023-02-01T11:24:04.253Z,95443.97
2023-02-01T11:26:34.069Z,95463.09
2023-02-01T11:29:06.147Z,95467.91
2023-02-01T11:31:37.407Z,95454.63
2023-02-01T11:34:11.605Z,95461.66
2023-02-01T11:36:42.299Z,95453.09
2023-02-01T11:39:20.678Z,95452.28
2023-02-01T11:42:01.279Z,95452.97
2023-02-01T11:44:35.080Z,95449.06
2023-02-01T11:47:26.704Z,95424.06
2023-02-01T11:49:56.754Z,95451.69
2023-02-01T11:52:43.133Z,95390.59
2023-02-01T11:55:27.170Z,95400.66
2023-02-01T11:58:02.895Z,95440.94
2023-02-01T12:00:59.261Z,95437.66
2023-02-01T12:04:04.823Z,95433.41
2023-02-01T12:06:47.595Z,95433.03
2023-02-01T12:09:40.717Z,95431.84
2023-02-01T12:12:17.092Z,95427.63
2023-02-01T12:14:59.029Z,95437.47
2023-02-01T12:17:47.501Z,95431.84
2023-02-01T12:20:32.478Z,95389.78
2023-02-01T12:23:19.858Z,95380.53
2023-02-01T12:26:05.234Z,95363.47
2023-02-01T12:28:56.381Z,95171.81
2023-02-01T12:31:46.010Z,95412.03
2023-02-01T12:34:38.574Z,95423.44
2023-02-01T12:37:20.691Z,95418.72
2023-02-01T12:39:56.447Z,95424.03
2023-02-01T12:42:29.212Z,95373.25
2023-02-01T12:45:03.022Z,95434.88
2023-02-01T12:47:37.638Z,95437.13
2023-02-01T12:50:15.133Z,95438.16
2023-02-01T12:52:48.581Z,95440.16
2023-02-01T12:55:23.911Z,95358.16
2023-02-01T12:57:57.841Z,95440.16
2023-02-01T13:00:33.822Z,95431.44
2023-02-01T13:03:08.237Z,95397.78
2023-02-01T13:05:49.497Z,95390.25
2023-02-01T13:08:25.641Z,95423.00
2023-02-01T13:11:01.973Z,95409.44
2023-02-01T13:13:40.122Z,95403.16
2023-02-01T13:16:19.410Z,95366.22
2023-02-01T13:18:52.388Z,95379.00
2023-02-01T13:21:26.403Z,95386.44
2023-02-01T13:23:56.595Z,95343.22
2023-02-01T13:26:25.158Z,95396.06
2023-02-01T13:28:58.272Z,95228.94
2023-02-01T13:31:41.159Z,95392.22
2023-02-01T13:34:46.123Z,95377.50
2023-02-01T13:37:29.803Z,95344.47
2023-02-01T13:40:20.013Z,95372.34
2023-02-01T13:42:53.318Z,95372.94
2023-02-01T13:45:25.324Z,95367.44
2023-02-01T13:47:56.150Z,95386.84
2023-02-01T13:50:27.442Z,95361.31
2023-02-01T13:52:58.295Z,95310.13
2023-02-01T13:55:33.699Z,95351.31
2023-02-01T13:58:06.596Z,95343.31
2023-02-01T14:00:37.453Z,95351.63
2023-02-01T14:03:23.963Z,95341.84
2023-02-01T14:06:04.921Z,95357.59
2023-02-01T14:09:14.895Z,95330.09
2023-02-01T14:11:48.649Z,95310.59
2023-02-01T14:14:48.002Z,95322.66
2023-02-01T14:17:40.419Z,95318.06
2023-02-01T14:20:46.818Z,95312.91
2023-02-01T14:23:19.108Z,95304.03
2023-02-01T14:25:49.241Z,95316.22
2023-02-01T14:28:29.653Z,95306.34
2023-02-01T14:31:01.801Z,95317.06
2023-02-01T14:33:30.513Z,95308.75
2023-02-01T14:36:05.393Z,95311.28
2023-02-01T14:38:34.975Z,95286.03
2023-02-01T14:41:32.679Z,95265.81
2023-02-01T14:44:28.043Z,95285.13
2023-02-01T14:47:33.289Z,95301.84
2023-02-01T14:50:29.468Z,95276.97
2023-02-01T14:53:13.874Z,95303.75
2023-02-01T14:55:44.969Z,95275.38
2023-02-01T14:58:21.454Z,95265.09
2023-02-01T15:00:54.499Z,95297.34
2023-02-01T15:03:47.959Z,95300.69
2023-02-01T15:06:30.581Z,95292.22
2023-02-01T15:09:03.902Z,95284.28
2023-02-01T15:11:33.054Z,95280.69
2023-02-01T15:14:01.784Z,95305.25
2023-02-01T15:16:31.655Z,95310.59
2023-02-01T15:19:17.528Z,95298.69
2023-02-01T15:21:48.810Z,95268.81
2023-02-01T15:24:23.254Z,95295.66
2023-02-01T15:26:52.664Z,95286.53
2023-02-01T15:29:22.448Z,95295.47
2023-02-01T15:31:53.964Z,95278.41
2023-02-01T15:34:24.498Z,95286.72
2023-02-01T15:37:02.970Z,95242.91
2023-02-01T15:39:33.376Z,95268.16
2023-02-01T15:42:11.554Z,95283.13
2023-02-01T15:44:43.251Z,95268.47
2023-02-01T15:47:22.066Z,95219.38
2023-02-01T15:49:55.115Z,95276.44
2023-02-01T15:52:34.001Z,95234.69
2023-02-01T15:55:04.518Z,95279.25
2023-02-01T15:57:36.207Z,95288.72
2023-02-01T16:00:09.014Z,95294.53
2023-02-01T16:02:45.165Z,95279.88
2023-02-01T16:05:33.330Z,95290.44
2023-02-01T16:08:05.547Z,95301.63
2023-02-01T16:10:40.340Z,95284.00
2023-02-01T16:13:08.720Z,95302.69
2023-02-01T16:15:37.365Z,95309.69
2023-02-01T16:18:10.705Z,95309.81
2023-02-01T16:20:40.668Z,95301.53
2023-02-01T16:23:10.640Z,95301.34
2023-02-01T16:25:39.956Z,95326.47
2023-02-01T16:28:09.394Z,95292.09
2023-02-01T16:30:38.248Z,95331.63
2023-02-01T16:33:13.887Z,95325.06
2023-02-01T16:35:42.395Z,95331.88
2023-02-01T16:38:14.710Z,95342.28
2023-02-01T16:40:44.891Z,95349.56
2023-02-01T16:43:15.935Z,95352.94
2023-02-01T16:45:48.994Z,95348.44
2023-02-01T16:48:23.938Z,95346.34
2023-02-01T16:50:55.396Z,95340.22
2023-02-01T16:53:24.975Z,95310.75
2023-02-01T16:55:53.511Z,95333.75
2023-02-01T16:58:22.951Z,95299.75
2023-02-01T17:00:52.018Z,95305.28
2023-02-01T17:03:22.890Z,95360.56
2023-02-01T17:05:54.241Z,95348.44
2023-02-01T17:08:32.530Z,95342.72
2023-02-01T17:11:02.282Z,95344.91
2023-02-01T17:13:30.888Z,95352.00
2023-02-01T17:16:01.273Z,95350.84
2023-02-01T17:18:34.108Z,95309.25
2023-02-01T17:21:04.142Z,95330.59
2023-02-01T17:23:33.802Z,95336.97
2023-02-01T17:26:03.538Z,95346.59
2023-02-01T17:28:32.215Z,95293.72
2023-02-01T17:31:00.891Z,95353.09
2023-02-01T17:33:35.966Z,95334.06
2023-02-01T17:36:07.048Z,95331.88
2023-02-01T17:38:35.931Z,95302.28
2023-02-01T17:41:04.425Z,95316.09
2023-02-01T17:43:32.977Z,95353.34
2023-02-01T17:46:05.560Z,95366.09
2023-02-01T17:48:35.458Z,95350.16
2023-02-01T17:51:04.545Z,95356.47
2023-02-01T17:53:35.789Z,95337.13
2023-02-01T17:56:05.229Z,95346.31
2023-02-01T17:58:34.954Z,95382.53
2023-02-01T18:01:04.641Z,95385.66
2023-02-01T18:03:36.516Z,95362.28
2023-02-01T18:06:06.669Z,95388.06
2023-02-01T18:08:35.095Z,95383.13
2023-02-01T18:11:04.402Z,95389.97
2023-02-01T18:13:34.489Z,95369.94
2023-02-01T18:16:04.726Z,95367.16
2023-02-01T18:18:37.320Z,95387.31
2023-02-01T18:21:07.794Z,95363.81
2023-02-01T18:23:36.677Z,95374.00
2023-02-01T18:26:06.210Z,95381.38
2023-02-01T18:28:35.420Z,95374.72
2023-02-01T18:31:06.394Z,95359.31
2023-02-01T18:33:36.840Z,95358.13
2023-02-01T18:36:05.456Z,95368.53
2023-02-01T18:38:34.450Z,95354.88
2023-02-01T18:41:05.295Z,95355.84
2023-02-01T18:43:33.743Z,95268.19
2023-02-01T18:46:02.451Z,95368.09
2023-02-01T18:48:31.485Z,95370.72
2023-02-01T18:51:01.715Z,95361.44
2023-02-01T18:53:30.521Z,95362.88
2023-02-01T18:56:00.876Z,95363.34
2023-02-01T18:58:29.648Z,95364.47
2023-02-01T19:01:00.088Z,95343.34
2023-02-01T19:03:29.318Z,95358.50
2023-02-01T19:05:58.031Z,95368.66
2023-02-01T19:08:28.178Z,95355.22
2023-02-01T19:10:57.003Z,95374.81
2023-02-01T19:13:29.205Z,95377.38
2023-02-01T19:16:00.799Z,95370.16
2023-02-01T19:18:29.165Z,95394.31
2023-02-01T19:21:04.964Z,95372.03
2023-02-01T19:23:34.982Z,95405.91
2023-02-01T19:26:03.418Z,95413.56
2023-02-01T19:28:40.808Z,95420.84
2023-02-01T19:31:11.550Z,95436.69
2023-02-01T19:33:42.217Z,95449.69
2023-02-01T19:36:11.481Z,95420.84
2023-02-01T19:38:42.104Z,95453.09
2023-02-01T19:41:10.665Z,95446.59
2023-02-01T19:43:40.791Z,95442.53
2023-02-01T19:46:09.645Z,95408.59
2023-02-01T19:48:38.404Z,95428.50
2023-02-01T19:51:08.320Z,95422.88
2023-02-01T19:53:38.459Z,95450.91
2023-02-01T19:56:10.720Z,95441.72
2023-02-01T19:58:40.626Z,95426.97
2023-02-01T20:01:09.700Z,95448.97
2023-02-01T20:03:39.881Z,95441.22
2023-02-01T20:06:10.269Z,95429.84
2023-02-01T20:08:39.784Z,95439.06
2023-02-01T20:11:12.973Z,95415.13
2023-02-01T20:13:41.578Z,95400.94
2023-02-01T20:16:10.703Z,95442.63
2023-02-01T20:18:39.355Z,95435.75
2023-02-01T20:21:07.709Z,95441.22
2023-02-01T20:23:38.542Z,95460.34
2023-02-01T20:26:10.339Z,95450.09
2023-02-01T20:28:40.813Z,95437.66
2023-02-01T20:31:12.212Z,95440.41
2023-02-01T20:33:41.155Z,95431.28
2023-02-01T20:36:10.717Z,95419.16
2023-02-01T20:38:40.332Z,95432.19
2023-02-01T20:41:11.209Z,95401.66
2023-02-01T20:43:41.320Z,95443.06
2023-02-01T20:46:10.645Z,95449.63
2023-02-01T20:48:40.022Z,95456.78
2023-02-01T20:51:08.709Z,95428.69
2023-02-01T20:53:37.947Z,95407.16
2023-02-01T20:56:07.771Z,95399.25
2023-02-01T20:58:37.794Z,95447.09
2023-02-01T21:01:08.079Z,95356.50
2023-02-01T21:03:37.043Z,95445.44
2023-02-01T21:06:06.769Z,95425.25
2023-02-01T21:08:36.000Z,95407.81
2023-02-01T21:11:07.481Z,95444.59
2023-02-01T21:13:40.676Z,95433.47
2023-02-01T21:16:13.798Z,95454.38
2023-02-01T21:18:42.332Z,95414.41
2023-02-01T21:21:12.746Z,95435.28
2023-02-01T21:23:45.906Z,95460.06
2023-02-01T21:26:14.723Z,95455.06
2023-02-01T21:28:43.313Z,95448.00
2023-02-01T21:31:14.203Z,95456.72
2023-02-01T21:33:42.938Z,95312.22
2023-02-01T21:36:19.151Z,95450.81
2023-02-01T21:38:50.312Z,95460.97
2023-02-01T21:41:37.344Z,95467.88
2023-02-01T21:44:06.160Z,95451.66
2023-02-01T21:46:36.091Z,95451.03
2023-02-01T21:49:06.921Z,95465.00
2023-02-01T21:51:38.274Z,95466.03
2023-02-01T21:54:06.784Z,95476.34
2023-02-01T21:56:35.129Z,95404.91
2023-02-01T21:59:03.812Z,95488.78
2023-02-01T22:01:32.339Z,95485.81
2023-02-01T22:04:02.141Z,95484.47
2023-02-01T22:06:32.586Z,95473.56
2023-02-01T22:09:01.219Z,95496.13
2023-02-01T22:11:29.638Z,95487.78
2023-02-01T22:13:58.197Z,95494.97
2023-02-01T22:16:26.746Z,95445.59
2023-02-01T22:18:56.199Z,95482.06
2023-02-01T22:21:27.407Z,95504.19
2023-02-01T22:23:58.995Z,95504.00
2023-02-01T22:26:28.345Z,95496.00
2023-02-01T22:28:56.946Z,95499.19
2023-02-01T22:31:25.369Z,95494.47
2023-02-01T22:33:53.779Z,95500.16
2023-02-01T22:36:22.175Z,95433.94
2023-02-01T22:38:52.245Z,95507.22
2023-02-01T22:41:21.459Z,95515.66
2023-02-01T22:43:49.822Z,95514.25
2023-02-01T22:46:20.605Z,95471.41
2023-02-01T22:48:49.245Z,95421.28
2023-02-01T22:51:20.365Z,95505.22
2023-02-01T22:53:48.959Z,95509.63
2023-02-01T22:56:18.751Z,95502.16
2023-02-01T22:58:47.178Z,95499.06
2023-02-01T23:01:16.657Z,95503.22
2023-02-01T23:03:45.075Z,95522.25
2023-02-01T23:06:14.196Z,95494.97
2023-02-01T23:08:42.502Z,95492.94
2023-02-01T23:11:11.985Z,95519.38
2023-02-01T23:13:41.786Z,95519.69
2023-02-01T23:16:12.037Z,95507.25
2023-02-01T23:18:41.365Z,95525.25
2023-02-01T23:21:12.352Z,95522.44
2023-02-01T23:23:40.715Z,95529.75
2023-02-01T23:26:09.033Z,95545.69
2023-02-01T23:28:37.457Z,95521.69
2023-02-01T23:31:12.783Z,95515.13
2023-02-01T23:33:41.808Z,95504.44
2023-02-01T23:36:16.080Z,95514.88
2023-02-01T23:38:44.699Z,95521.75
2023-02-01T23:41:14.373Z,95526.53
2023-02-01T23:44:01.685Z,95520.22
2023-02-01T23:46:34.427Z,95512.22
2023-02-01T23:49:04.037Z,95529.84
2023-02-01T23:51:33.089Z,95518.72
2023-02-01T23:54:02.068Z,95452.25
2023-02-01T23:56:34.249Z,95536.34
2023-02-01T23:59:03.361Z,95522.44
